createdAt,value
2019-06-20T00:01:34.760Z,83.02
2019-06-20T00:04:00.907Z,82.36
2019-06-20T00:06:27.141Z,82.20
2019-06-20T00:08:53.245Z,82.22
2019-06-20T00:11:19.402Z,82.72
2019-06-20T00:13:45.415Z,82.50
2019-06-20T00:16:11.611Z,82.27
2019-06-20T00:18:37.651Z,82.82
2019-06-20T00:21:03.805Z,82.80
2019-06-20T00:23:29.804Z,82.15
2019-06-20T00:25:55.825Z,81.80
2019-06-20T00:28:21.933Z,81.47
2019-06-20T00:30:48.045Z,81.21
2019-06-20T00:33:14.167Z,80.89
2019-06-20T00:35:40.279Z,80.52
2019-06-20T00:38:06.299Z,80.51
2019-06-20T00:40:32.436Z,80.90
2019-06-20T00:42:58.551Z,81.23
2019-06-20T00:45:24.777Z,81.37
2019-06-20T00:47:50.926Z,80.87
2019-06-20T00:50:17.301Z,80.53
2019-06-20T00:52:43.416Z,80.47
2019-06-20T00:55:10.021Z,80.62
2019-06-20T00:57:36.043Z,81.20
2019-06-20T01:00:07.915Z,81.37
2019-06-20T01:02:33.965Z,80.97
2019-06-20T01:05:00.078Z,80.96
2019-06-20T01:07:26.329Z,81.07
2019-06-20T01:09:52.445Z,81.26
2019-06-20T01:12:18.753Z,81.71
2019-06-20T01:14:44.764Z,82.44
2019-06-20T01:17:10.877Z,82.87
2019-06-20T01:19:36.896Z,82.40
2019-06-20T01:22:03.117Z,82.06
2019-06-20T01:24:29.139Z,81.90
2019-06-20T01:26:55.250Z,81.84
2019-06-20T01:29:21.383Z,81.84
2019-06-20T01:31:47.488Z,81.96
2019-06-20T01:34:13.633Z,82.06
2019-06-20T01:36:39.853Z,82.10
2019-06-20T01:39:06.577Z,81.73
2019-06-20T01:41:32.687Z,81.75
2019-06-20T01:43:58.702Z,81.62
2019-06-20T01:46:24.706Z,81.66
2019-06-20T01:48:50.714Z,81.89
2019-06-20T01:51:16.841Z,82.04
2019-06-20T01:53:42.888Z,82.23
2019-06-20T01:56:08.939Z,82.34
2019-06-20T01:58:35.045Z,82.50
2019-06-20T02:01:01.151Z,82.41
2019-06-20T02:03:27.254Z,82.08
2019-06-20T02:05:53.391Z,82.00
2019-06-20T02:08:19.561Z,82.07
2019-06-20T02:10:45.730Z,82.33
2019-06-20T02:13:11.844Z,82.14
2019-06-20T02:15:38.037Z,81.97
2019-06-20T02:18:04.244Z,81.92
2019-06-20T02:20:33.942Z,82.15
2019-06-20T02:23:00.248Z,82.22
2019-06-20T02:25:26.678Z,82.50
2019-06-20T02:27:52.692Z,82.51
2019-06-20T02:30:18.812Z,82.33
2019-06-20T02:32:44.932Z,82.04
2019-06-20T02:35:11.162Z,81.87
2019-06-20T02:37:37.295Z,82.24
2019-06-20T02:40:05.190Z,82.11
2019-06-20T02:42:31.301Z,82.03
2019-06-20T02:44:57.317Z,81.82
2019-06-20T02:47:23.339Z,82.03
2019-06-20T02:49:49.442Z,82.29
2019-06-20T02:52:15.587Z,82.50
2019-06-20T02:54:41.688Z,82.70
2019-06-20T02:57:07.842Z,82.77
2019-06-20T02:59:33.943Z,82.92
2019-06-20T03:01:59.986Z,82.80
2019-06-20T03:04:26.094Z,82.76
2019-06-20T03:06:52.137Z,82.69
2019-06-20T03:09:18.267Z,83.12
2019-06-20T03:11:44.380Z,83.25
2019-06-20T03:14:10.511Z,83.12
2019-06-20T03:16:36.500Z,82.99
2019-06-20T03:19:02.811Z,83.19
2019-06-20T03:21:28.862Z,83.09
2019-06-20T03:23:54.857Z,83.13
2019-06-20T03:26:20.979Z,83.14
2019-06-20T03:28:47.094Z,83.10
2019-06-20T03:31:13.229Z,83.30
2019-06-20T03:33:39.341Z,83.58
2019-06-20T03:36:05.564Z,83.59
2019-06-20T03:38:31.652Z,83.59
2019-06-20T03:40:57.943Z,83.48
2019-06-20T03:43:24.045Z,83.53
2019-06-20T03:45:50.161Z,83.61
2019-06-20T03:48:16.287Z,83.82
2019-06-20T03:50:42.386Z,84.33
2019-06-20T03:53:08.394Z,84.91
2019-06-20T03:55:34.499Z,85.22
2019-06-20T03:58:01.028Z,85.00
2019-06-20T04:00:30.746Z,84.84
2019-06-20T04:02:56.892Z,84.74
2019-06-20T04:05:22.998Z,85.15
2019-06-20T04:07:49.052Z,85.94
2019-06-20T04:10:15.166Z,86.20
2019-06-20T04:12:41.277Z,85.79
2019-06-20T04:15:18.753Z,85.44
2019-06-20T04:17:35.419Z,86.01
2019-06-20T04:20:02.770Z,86.56
2019-06-20T04:22:28.760Z,86.74
2019-06-20T04:24:54.931Z,86.78
2019-06-20T04:27:21.094Z,86.78
2019-06-20T04:29:47.139Z,86.60
2019-06-20T04:32:13.179Z,86.89
2019-06-20T04:34:39.171Z,87.19
2019-06-20T04:37:05.072Z,87.18
2019-06-20T04:39:31.078Z,86.75
2019-06-20T04:41:57.188Z,86.48
2019-06-20T04:44:23.226Z,86.85
2019-06-20T04:46:56.780Z,86.90
2019-06-20T04:49:22.897Z,86.73
2019-06-20T04:51:48.969Z,86.61
2019-06-20T04:54:15.069Z,86.68
2019-06-20T04:56:41.112Z,86.72
2019-06-20T04:59:07.120Z,86.54
2019-06-20T05:01:33.236Z,86.38
2019-06-20T05:03:59.239Z,86.33
2019-06-20T05:06:25.346Z,86.44
2019-06-20T05:08:51.375Z,86.31
2019-06-20T05:11:17.505Z,86.30
2019-06-20T05:13:43.608Z,86.93
2019-06-20T05:16:09.678Z,87.34
2019-06-20T05:18:35.789Z,88.06
2019-06-20T05:21:01.800Z,88.53
2019-06-20T05:23:27.906Z,88.93
2019-06-20T05:25:54.019Z,88.58
2019-06-20T05:28:20.145Z,88.11
2019-06-20T05:30:46.254Z,87.55
2019-06-20T05:33:12.162Z,87.10
2019-06-20T05:35:38.274Z,87.13
2019-06-20T05:38:04.396Z,86.67
2019-06-20T05:40:30.616Z,85.91
2019-06-20T05:42:56.656Z,85.86
2019-06-20T05:45:23.927Z,86.25
2019-06-20T05:47:50.047Z,85.42
2019-06-20T05:50:16.252Z,85.52
2019-06-20T05:52:42.273Z,85.40
2019-06-20T05:55:08.587Z,85.38
2019-06-20T05:57:34.697Z,85.74
2019-06-20T06:00:00.967Z,85.44
2019-06-20T06:02:27.164Z,85.69
2019-06-20T06:04:53.279Z,85.48
2019-06-20T06:07:19.453Z,85.38
2019-06-20T06:09:45.762Z,85.52
2019-06-20T06:12:12.320Z,85.26
2019-06-20T06:14:38.330Z,85.22
2019-06-20T06:17:04.438Z,84.86
2019-06-20T06:19:30.557Z,84.76
2019-06-20T06:21:56.607Z,84.66
2019-06-20T06:24:22.733Z,84.87
2019-06-20T06:26:48.875Z,84.77
2019-06-20T06:29:14.982Z,84.92
2019-06-20T06:31:41.114Z,84.85
2019-06-20T06:34:07.135Z,84.89
2019-06-20T06:36:33.084Z,84.88
2019-06-20T06:38:59.103Z,84.86
2019-06-20T06:41:25.267Z,84.68
2019-06-20T06:43:51.432Z,84.55
2019-06-20T06:46:17.479Z,84.58
2019-06-20T06:48:43.589Z,84.54
2019-06-20T06:51:09.704Z,84.64
2019-06-20T06:53:35.813Z,84.63
2019-06-20T06:56:01.934Z,85.17
2019-06-20T06:58:28.038Z,84.90
2019-06-20T07:00:54.058Z,85.07
2019-06-20T07:03:20.164Z,84.47
2019-06-20T07:05:47.748Z,84.46
2019-06-20T07:08:13.991Z,84.11
2019-06-20T07:10:40.182Z,83.87
2019-06-20T07:13:06.289Z,83.56
2019-06-20T07:15:32.535Z,83.57
2019-06-20T07:17:58.675Z,82.97
2019-06-20T07:20:24.786Z,82.76
2019-06-20T07:22:51.329Z,82.49
2019-06-20T07:25:17.627Z,82.76
2019-06-20T07:27:45.718Z,82.21
2019-06-20T07:30:13.728Z,82.02
2019-06-20T07:32:39.744Z,81.81
2019-06-20T07:35:07.976Z,81.75
2019-06-20T07:37:34.084Z,81.47
2019-06-20T07:40:00.216Z,81.65
2019-06-20T07:42:26.239Z,81.66
2019-06-20T07:44:53.760Z,81.55
2019-06-20T07:47:19.855Z,80.94
2019-06-20T07:49:46.118Z,81.00
2019-06-20T07:52:12.227Z,80.41
2019-06-20T07:54:38.378Z,79.65
2019-06-20T07:57:04.489Z,79.02
2019-06-20T07:59:30.596Z,79.71
2019-06-20T08:01:56.709Z,79.84
2019-06-20T08:04:23.021Z,80.60
2019-06-20T08:06:49.131Z,81.08
2019-06-20T08:09:15.276Z,79.56
2019-06-20T08:11:43.518Z,77.87
2019-06-20T08:14:09.623Z,76.98
2019-06-20T08:16:35.759Z,76.43
2019-06-20T08:19:02.433Z,76.04
2019-06-20T08:21:28.688Z,75.56
2019-06-20T08:23:54.812Z,75.25
2019-06-20T08:26:21.379Z,74.52
2019-06-20T08:28:47.417Z,74.22
2019-06-20T08:31:13.637Z,74.00
2019-06-20T08:33:39.654Z,74.24
2019-06-20T08:36:06.665Z,72.72
2019-06-20T08:38:32.874Z,73.30
2019-06-20T08:41:00.136Z,73.63
2019-06-20T08:43:26.413Z,73.09
2019-06-20T08:45:52.474Z,72.13
2019-06-20T08:48:18.598Z,71.94
2019-06-20T08:50:44.726Z,72.03
2019-06-20T08:53:12.040Z,72.15
2019-06-20T08:55:38.349Z,71.83
2019-06-20T08:58:05.623Z,71.67
2019-06-20T09:00:34.683Z,72.03
2019-06-20T09:03:00.821Z,71.50
2019-06-20T09:05:30.492Z,71.53
2019-06-20T09:07:57.180Z,72.16
2019-06-20T09:10:27.410Z,70.79
2019-06-20T09:12:55.074Z,71.18
2019-06-20T09:15:21.559Z,71.08
2019-06-20T09:17:47.657Z,70.36
2019-06-20T09:20:14.377Z,71.15
2019-06-20T09:22:40.605Z,69.41
2019-06-20T09:25:08.272Z,69.12
2019-06-20T09:27:35.303Z,69.07
2019-06-20T09:30:03.458Z,68.75
2019-06-20T09:32:29.782Z,69.22
2019-06-20T09:34:56.567Z,69.33
2019-06-20T09:37:22.812Z,67.93
2019-06-20T09:39:48.749Z,67.71
2019-06-20T09:42:14.792Z,66.34
2019-06-20T09:44:40.806Z,67.68
2019-06-20T09:47:06.971Z,66.53
2019-06-20T09:49:33.007Z,66.38
2019-06-20T09:51:59.048Z,66.56
2019-06-20T09:54:25.130Z,65.41
2019-06-20T09:56:53.531Z,65.81
2019-06-20T09:59:27.509Z,65.42
2019-06-20T10:01:48.131Z,66.15
2019-06-20T10:04:15.055Z,66.58
2019-06-20T10:06:41.172Z,66.64
2019-06-20T10:09:07.712Z,66.29
2019-06-20T10:11:33.854Z,66.01
2019-06-20T10:13:59.925Z,66.06
2019-06-20T10:16:26.038Z,66.36
2019-06-20T10:18:52.204Z,65.61
2019-06-20T10:21:18.526Z,66.29
2019-06-20T10:23:46.021Z,66.14
2019-06-20T10:26:12.359Z,66.26
2019-06-20T10:28:38.277Z,66.39
2019-06-20T10:31:04.184Z,66.65
2019-06-20T10:33:30.311Z,67.66
2019-06-20T10:35:57.250Z,66.26
2019-06-20T10:38:23.448Z,65.46
2019-06-20T10:40:49.887Z,65.66
2019-06-20T10:43:16.119Z,65.92
2019-06-20T10:45:44.026Z,66.36
2019-06-20T10:48:10.351Z,66.52
2019-06-20T10:50:36.572Z,65.68
2019-06-20T10:53:03.107Z,66.24
2019-06-20T10:55:29.276Z,66.20
2019-06-20T10:57:55.290Z,64.40
2019-06-20T11:00:30.648Z,64.24
2019-06-20T11:02:52.146Z,63.20
2019-06-20T11:05:18.374Z,62.20
2019-06-20T11:07:45.631Z,63.97
2019-06-20T11:10:13.215Z,63.22
2019-06-20T11:12:45.577Z,61.31
2019-06-20T11:15:08.168Z,61.04
2019-06-20T11:17:34.315Z,60.52
2019-06-20T11:20:00.292Z,59.84
2019-06-20T11:22:26.324Z,60.96
2019-06-20T11:24:52.344Z,61.51
2019-06-20T11:27:18.497Z,61.66
2019-06-20T11:29:44.532Z,59.46
2019-06-20T11:32:10.578Z,59.85
2019-06-20T11:34:37.667Z,59.92
2019-06-20T11:37:04.446Z,59.53
2019-06-20T11:39:30.550Z,58.67
2019-06-20T11:41:56.607Z,58.39
2019-06-20T11:44:22.772Z,58.17
2019-06-20T11:46:48.799Z,57.63
2019-06-20T11:49:14.933Z,57.72
2019-06-20T11:51:41.922Z,55.63
2019-06-20T11:54:08.083Z,57.06
2019-06-20T11:56:34.195Z,56.06
2019-06-20T11:59:00.216Z,55.53
2019-06-20T12:01:32.831Z,55.59
2019-06-20T12:03:54.423Z,54.51
2019-06-20T12:06:20.346Z,53.98
2019-06-20T12:08:46.814Z,54.81
2019-06-20T12:11:13.053Z,55.30
2019-06-20T12:13:40.380Z,54.59
2019-06-20T12:16:06.653Z,54.48
2019-06-20T12:18:32.765Z,53.36
2019-06-20T12:20:58.873Z,54.20
2019-06-20T12:23:24.914Z,53.37
2019-06-20T12:25:51.036Z,50.23
2019-06-20T12:28:17.149Z,51.79
2019-06-20T12:30:43.926Z,51.60
2019-06-20T12:33:10.343Z,52.43
2019-06-20T12:35:37.850Z,52.15
2019-06-20T12:38:04.575Z,52.74
2019-06-20T12:40:30.896Z,53.24
2019-06-20T12:42:56.820Z,52.16
2019-06-20T12:45:23.036Z,52.22
2019-06-20T12:47:50.108Z,52.28
2019-06-20T12:50:16.994Z,53.44
2019-06-20T12:52:44.230Z,53.28
2019-06-20T12:55:11.495Z,52.57
2019-06-20T12:57:38.617Z,51.79
2019-06-20T13:00:07.988Z,52.64
2019-06-20T13:02:34.101Z,53.56
2019-06-20T13:05:00.115Z,54.00
2019-06-20T13:07:26.045Z,53.71
2019-06-20T13:09:52.056Z,52.52
2019-06-20T13:12:18.117Z,51.64
2019-06-20T13:14:45.647Z,52.13
2019-06-20T13:17:11.934Z,52.51
2019-06-20T13:19:39.139Z,53.41
2019-06-20T13:22:06.106Z,53.47
2019-06-20T13:24:32.205Z,52.39
2019-06-20T13:26:58.260Z,52.58
2019-06-20T13:29:24.165Z,52.15
2019-06-20T13:32:01.936Z,53.20
2019-06-20T13:34:17.900Z,54.90
2019-06-20T13:36:44.749Z,55.30
2019-06-20T13:39:10.978Z,55.43
2019-06-20T13:41:39.392Z,56.21
2019-06-20T13:44:05.091Z,55.41
2019-06-20T13:46:31.191Z,55.47
2019-06-20T13:48:57.291Z,56.27
2019-06-20T13:51:23.408Z,57.72
2019-06-20T13:53:50.571Z,56.44
2019-06-20T13:56:16.675Z,56.80
2019-06-20T13:58:42.548Z,57.09
2019-06-20T14:01:08.698Z,56.43
2019-06-20T14:03:34.608Z,56.50
2019-06-20T14:06:00.628Z,57.74
2019-06-20T14:08:26.759Z,58.03
2019-06-20T14:10:52.851Z,57.38
2019-06-20T14:13:20.267Z,57.42
2019-06-20T14:15:46.388Z,56.78
2019-06-20T14:18:12.406Z,56.79
2019-06-20T14:20:38.557Z,57.63
2019-06-20T14:23:04.672Z,58.81
2019-06-20T14:25:34.062Z,57.59
2019-06-20T14:27:58.735Z,58.34
2019-06-20T14:30:25.654Z,59.20
2019-06-20T14:32:51.661Z,57.78
2019-06-20T14:35:18.069Z,58.41
2019-06-20T14:37:45.701Z,59.45
2019-06-20T14:40:12.233Z,59.13
2019-06-20T14:42:38.394Z,58.84
2019-06-20T14:45:05.606Z,59.32
2019-06-20T14:47:31.742Z,59.34
2019-06-20T14:49:57.751Z,59.84
2019-06-20T14:52:23.805Z,60.64
2019-06-20T14:54:49.964Z,60.81
2019-06-20T14:57:16.099Z,60.52
2019-06-20T14:59:43.162Z,59.98
2019-06-20T15:02:10.229Z,60.00
2019-06-20T15:04:36.359Z,59.15
2019-06-20T15:07:02.514Z,60.28
2019-06-20T15:09:28.653Z,61.82
2019-06-20T15:11:55.229Z,62.26
2019-06-20T15:14:21.471Z,62.67
2019-06-20T15:16:48.329Z,63.36
2019-06-20T15:19:15.406Z,63.94
2019-06-20T15:21:41.523Z,64.14
2019-06-20T15:24:07.678Z,64.91
2019-06-20T15:26:33.696Z,66.09
2019-06-20T15:28:59.745Z,66.55
2019-06-20T15:31:25.976Z,66.96
2019-06-20T15:33:53.367Z,67.05
2019-06-20T15:36:19.523Z,66.96
2019-06-20T15:38:47.661Z,67.02
2019-06-20T15:41:13.588Z,66.85
2019-06-20T15:43:39.754Z,67.20
2019-06-20T15:46:05.903Z,67.83
2019-06-20T15:48:31.929Z,67.84
2019-06-20T15:50:58.066Z,67.82
2019-06-20T15:53:24.085Z,67.86
2019-06-20T15:55:50.202Z,67.86
2019-06-20T15:58:16.307Z,68.04
2019-06-20T16:00:42.443Z,68.33
2019-06-20T16:03:10.207Z,69.21
2019-06-20T16:05:36.531Z,69.21
2019-06-20T16:08:02.644Z,69.86
2019-06-20T16:10:28.778Z,69.91
2019-06-20T16:12:54.873Z,69.61
2019-06-20T16:15:21.423Z,69.23
2019-06-20T16:17:47.491Z,69.06
2019-06-20T16:20:14.199Z,68.99
2019-06-20T16:22:40.199Z,69.26
2019-06-20T16:25:07.639Z,69.52
2019-06-20T16:27:33.776Z,69.52
2019-06-20T16:29:59.777Z,69.65
2019-06-20T16:32:25.740Z,69.69
2019-06-20T16:34:52.105Z,69.76
2019-06-20T16:37:17.999Z,69.73
2019-06-20T16:39:44.093Z,69.65
2019-06-20T16:42:10.248Z,69.47
2019-06-20T16:44:36.346Z,69.56
2019-06-20T16:47:02.499Z,69.67
2019-06-20T16:49:28.778Z,69.96
2019-06-20T16:51:54.879Z,70.08
2019-06-20T16:54:20.931Z,70.34
2019-06-20T16:56:47.013Z,70.97
2019-06-20T16:59:14.322Z,71.31
2019-06-20T17:01:41.451Z,71.29
2019-06-20T17:04:07.620Z,71.51
2019-06-20T17:06:33.739Z,71.14
2019-06-20T17:08:59.862Z,71.77
2019-06-20T17:11:25.828Z,72.66
2019-06-20T17:13:53.784Z,73.26
2019-06-20T17:16:19.937Z,73.55
2019-06-20T17:18:46.047Z,73.76
2019-06-20T17:21:12.154Z,73.81
2019-06-20T17:23:38.801Z,74.03
2019-06-20T17:26:05.448Z,74.41
2019-06-20T17:28:31.358Z,74.43
2019-06-20T17:30:57.464Z,74.17
2019-06-20T17:33:23.828Z,74.12
2019-06-20T17:35:54.918Z,74.43
2019-06-20T17:38:20.876Z,74.66
2019-06-20T17:40:46.925Z,74.67
2019-06-20T17:43:13.045Z,75.03
2019-06-20T17:45:39.162Z,75.68
2019-06-20T17:48:05.328Z,75.94
2019-06-20T17:50:31.490Z,76.34
2019-06-20T17:52:57.496Z,76.77
2019-06-20T17:55:23.602Z,77.08
2019-06-20T17:57:49.723Z,76.78
2019-06-20T18:00:18.540Z,76.56
2019-06-20T18:02:44.649Z,76.53
2019-06-20T18:05:11.951Z,76.79
2019-06-20T18:07:38.064Z,76.92
2019-06-20T18:10:04.790Z,76.93
2019-06-20T18:12:30.950Z,76.71
2019-06-20T18:14:57.195Z,76.92
2019-06-20T18:17:23.333Z,77.14
2019-06-20T18:19:49.391Z,77.32
2019-06-20T18:22:15.403Z,77.05
2019-06-20T18:24:41.607Z,76.91
2019-06-20T18:27:07.718Z,77.28
2019-06-20T18:29:33.824Z,77.26
2019-06-20T18:32:00.008Z,76.82
2019-06-20T18:34:29.961Z,76.72
2019-06-20T18:36:54.093Z,76.69
2019-06-20T18:39:20.199Z,76.55
2019-06-20T18:41:47.500Z,76.27
2019-06-20T18:44:13.754Z,76.45
2019-06-20T18:46:39.907Z,76.46
2019-06-20T18:49:06.055Z,76.31
2019-06-20T18:51:32.208Z,76.45
2019-06-20T18:53:58.361Z,76.93
2019-06-20T18:56:24.263Z,76.84
2019-06-20T18:58:50.312Z,76.95
2019-06-20T19:01:16.437Z,76.96
2019-06-20T19:03:42.582Z,76.93
2019-06-20T19:06:08.695Z,77.35
2019-06-20T19:08:34.734Z,77.07
2019-06-20T19:11:00.850Z,77.24
2019-06-20T19:13:26.970Z,77.46
2019-06-20T19:15:53.080Z,77.36
2019-06-20T19:18:22.753Z,77.05
2019-06-20T19:20:47.139Z,76.94
2019-06-20T19:23:13.247Z,76.75
2019-06-20T19:25:39.393Z,76.57
2019-06-20T19:28:05.492Z,76.49
2019-06-20T19:30:35.205Z,76.37
2019-06-20T19:33:01.312Z,76.35
2019-06-20T19:35:27.412Z,76.31
2019-06-20T19:37:53.487Z,76.33
2019-06-20T19:40:23.208Z,76.68
2019-06-20T19:42:49.324Z,76.77
2019-06-20T19:45:15.560Z,76.62
2019-06-20T19:47:41.761Z,76.65
2019-06-20T19:50:09.112Z,76.82
2019-06-20T19:52:35.372Z,76.89
2019-06-20T19:55:01.869Z,76.55
2019-06-20T19:57:27.981Z,76.72
2019-06-20T19:59:54.236Z,76.77
2019-06-20T20:02:20.357Z,76.97
2019-06-20T20:04:46.484Z,77.28
2019-06-20T20:07:12.619Z,77.26
2019-06-20T20:09:38.761Z,77.17
2019-06-20T20:12:04.893Z,77.46
2019-06-20T20:14:30.938Z,77.85
2019-06-20T20:16:57.059Z,77.57
2019-06-20T20:19:23.157Z,77.42
2019-06-20T20:21:49.295Z,77.22
2019-06-20T20:24:15.387Z,77.24
2019-06-20T20:26:41.511Z,77.51
2019-06-20T20:29:07.519Z,77.67
2019-06-20T20:31:33.635Z,77.65
2019-06-20T20:33:59.757Z,77.75
2019-06-20T20:36:25.676Z,77.80
2019-06-20T20:38:51.706Z,77.85
2019-06-20T20:41:17.836Z,78.58
2019-06-20T20:43:44.007Z,78.50
2019-06-20T20:46:10.199Z,78.41
2019-06-20T20:48:36.226Z,78.75
2019-06-20T20:51:02.401Z,79.15
2019-06-20T20:53:28.576Z,79.49
2019-06-20T20:55:54.697Z,79.21
2019-06-20T20:58:20.815Z,79.55
2019-06-20T21:01:15.140Z,79.29
2019-06-20T21:03:41.148Z,79.01
2019-06-20T21:06:07.278Z,79.00
2019-06-20T21:08:33.408Z,78.89
2019-06-20T21:10:59.315Z,78.74
2019-06-20T21:13:25.488Z,78.65
2019-06-20T21:15:51.595Z,78.76
2019-06-20T21:18:17.759Z,78.90
2019-06-20T21:20:44.089Z,78.81
2019-06-20T21:23:10.187Z,78.83
2019-06-20T21:25:37.004Z,78.99
2019-06-20T21:28:03.132Z,80.26
2019-06-20T21:30:29.534Z,80.50
2019-06-20T21:32:55.658Z,80.25
2019-06-20T21:35:21.768Z,79.92
2019-06-20T21:37:47.876Z,79.73
2019-06-20T21:40:15.154Z,79.70
2019-06-20T21:42:41.239Z,79.60
2019-06-20T21:45:08.598Z,79.58
2019-06-20T21:47:34.689Z,79.74
2019-06-20T21:50:00.836Z,79.71
2019-06-20T21:52:26.877Z,79.49
2019-06-20T21:54:52.993Z,79.26
2019-06-20T21:57:19.154Z,79.16
2019-06-20T21:59:45.303Z,78.81
2019-06-20T22:02:11.438Z,78.43
2019-06-20T22:04:37.675Z,78.30
2019-06-20T22:07:03.840Z,78.42
2019-06-20T22:09:30.068Z,78.51
2019-06-20T22:11:56.082Z,78.39
2019-06-20T22:14:22.080Z,78.21
2019-06-20T22:16:48.104Z,78.20
2019-06-20T22:19:14.260Z,78.24
2019-06-20T22:21:40.361Z,78.58
2019-06-20T22:24:06.465Z,79.05
2019-06-20T22:26:32.470Z,79.02
2019-06-20T22:28:58.593Z,79.00
2019-06-20T22:31:24.734Z,79.04
2019-06-20T22:33:50.838Z,79.36
2019-06-20T22:36:17.052Z,79.52
2019-06-20T22:38:43.124Z,79.62
2019-06-20T22:41:09.242Z,79.97
2019-06-20T22:43:35.260Z,79.66
2019-06-20T22:46:01.705Z,79.26
2019-06-20T22:48:27.829Z,79.14
2019-06-20T22:50:53.940Z,79.03
2019-06-20T22:53:20.086Z,79.08
2019-06-20T22:55:46.211Z,79.32
2019-06-20T22:58:12.436Z,79.49
2019-06-20T23:00:38.777Z,79.52
2019-06-20T23:03:04.878Z,79.51
2019-06-20T23:05:30.996Z,79.53
2019-06-20T23:07:57.096Z,79.37
2019-06-20T23:10:25.317Z,79.35
2019-06-20T23:12:51.322Z,78.92
2019-06-20T23:15:17.567Z,78.92
2019-06-20T23:17:43.590Z,79.06
2019-06-20T23:20:10.314Z,79.28
2019-06-20T23:22:36.443Z,79.46
2019-06-20T23:25:07.797Z,79.62
2019-06-20T23:27:33.995Z,79.53
2019-06-20T23:30:00.038Z,79.39
2019-06-20T23:32:26.181Z,79.42
2019-06-20T23:34:52.215Z,79.50
2019-06-20T23:37:18.285Z,79.54
2019-06-20T23:39:44.286Z,79.35
2019-06-20T23:42:10.397Z,79.46
2019-06-20T23:44:36.533Z,79.56
2019-06-20T23:47:02.700Z,79.69
2019-06-20T23:49:28.697Z,79.80
2019-06-20T23:51:56.601Z,80.02
2019-06-20T23:54:22.610Z,80.03
2019-06-20T23:56:48.710Z,80.10
2019-06-20T23:59:14.764Z,80.31
